sensor_id;sensor_type;location;lat;lon;timestamp;P1;durP1;ratioP1;P2;durP2;ratioP2
54561;SDS011;40456;53.358;-1.486;2022-11-21T00:00:04;2.28;;;0.90;;
54561;SDS011;40456;53.358;-1.486;2022-11-21T00:02:31;4.03;;;1.30;;
54561;SDS011;40456;53.358;-1.486;2022-11-21T00:04:56;4.30;;;1.13;;
54561;SDS011;40456;53.358;-1.486;2022-11-21T00:07:22;3.90;;;1.20;;
54561;SDS011;40456;53.358;-1.486;2022-11-21T00:09:47;2.05;;;1.00;;
54561;SDS011;40456;53.358;-1.486;2022-11-21T00:12:14;2.35;;;1.00;;
54561;SDS011;40456;53.358;-1.486;2022-11-21T00:14:40;3.67;;;1.02;;
54561;SDS011;40456;53.358;-1.486;2022-11-21T00:17:05;2.22;;;1.00;;
54561;SDS011;40456;53.358;-1.486;2022-11-21T00:19:32;1.40;;;0.98;;
54561;SDS011;40456;53.358;-1.486;2022-11-21T00:21:57;2.80;;;1.00;;
54561;SDS011;40456;53.358;-1.486;2022-11-21T00:24:22;2.08;;;0.95;;
54561;SDS011;40456;53.358;-1.486;2022-11-21T00:26:48;1.83;;;0.90;;
54561;SDS011;40456;53.358;-1.486;2022-11-21T00:29:13;1.00;;;0.60;;
54561;SDS011;40456;53.358;-1.486;2022-11-21T00:31:39;1.42;;;0.55;;
54561;SDS011;40456;53.358;-1.486;2022-11-21T00:34:04;3.83;;;0.85;;
54561;SDS011;40456;53.358;-1.486;2022-11-21T00:36:29;2.80;;;1.10;;
54561;SDS011;40456;53.358;-1.486;2022-11-21T00:38:55;3.80;;;1.10;;
54561;SDS011;40456;53.358;-1.486;2022-11-21T00:41:20;2.75;;;1.20;;
54561;SDS011;40456;53.358;-1.486;2022-11-21T00:43:45;3.90;;;1.13;;
54561;SDS011;40456;53.358;-1.486;2022-11-21T00:46:11;2.67;;;1.00;;
54561;SDS011;40456;53.358;-1.486;2022-11-21T00:48:36;1.60;;;0.90;;
54561;SDS011;40456;53.358;-1.486;2022-11-21T00:51:01;1.48;;;0.90;;
54561;SDS011;40456;53.358;-1.486;2022-11-21T00:53:27;2.25;;;1.10;;
54561;SDS011;40456;53.358;-1.486;2022-11-21T00:55:53;3.80;;;1.15;;
54561;SDS011;40456;53.358;-1.486;2022-11-21T00:58:18;2.15;;;1.25;;
54561;SDS011;40456;53.358;-1.486;2022-11-21T01:00:43;2.75;;;0.90;;
54561;SDS011;40456;53.358;-1.486;2022-11-21T01:03:09;1.27;;;0.73;;
54561;SDS011;40456;53.358;-1.486;2022-11-21T01:05:34;1.80;;;1.08;;
54561;SDS011;40456;53.358;-1.486;2022-11-21T01:07:59;3.58;;;0.63;;
54561;SDS011;40456;53.358;-1.486;2022-11-21T01:10:25;2.90;;;1.23;;
54561;SDS011;40456;53.358;-1.486;2022-11-21T01:12:50;2.53;;;1.15;;
54561;SDS011;40456;53.358;-1.486;2022-11-21T01:15:16;2.90;;;1.08;;
54561;SDS011;40456;53.358;-1.486;2022-11-21T01:17:41;1.85;;;0.85;;
54561;SDS011;40456;53.358;-1.486;2022-11-21T01:20:06;2.50;;;0.85;;
54561;SDS011;40456;53.358;-1.486;2022-11-21T01:22:32;1.85;;;1.02;;
54561;SDS011;40456;53.358;-1.486;2022-11-21T01:24:58;1.52;;;0.85;;
54561;SDS011;40456;53.358;-1.486;2022-11-21T01:27:23;1.20;;;0.60;;
54561;SDS011;40456;53.358;-1.486;2022-11-21T01:29:48;1.73;;;0.80;;
54561;SDS011;40456;53.358;-1.486;2022-11-21T01:32:14;2.63;;;0.77;;
54561;SDS011;40456;53.358;-1.486;2022-11-21T01:34:39;1.40;;;0.80;;
54561;SDS011;40456;53.358;-1.486;2022-11-21T01:37:04;2.78;;;0.80;;
54561;SDS011;40456;53.358;-1.486;2022-11-21T01:39:30;3.00;;;1.50;;
54561;SDS011;40456;53.358;-1.486;2022-11-21T01:41:55;2.10;;;0.90;;
54561;SDS011;40456;53.358;-1.486;2022-11-21T01:44:22;1.67;;;0.73;;
54561;SDS011;40456;53.358;-1.486;2022-11-21T01:46:49;1.48;;;0.60;;
54561;SDS011;40456;53.358;-1.486;2022-11-21T01:49:28;3.85;;;0.98;;
54561;SDS011;40456;53.358;-1.486;2022-11-21T01:54:25;2.25;;;0.90;;
54561;SDS011;40456;53.358;-1.486;2022-11-21T01:57:07;0.90;;;0.60;;
54561;SDS011;40456;53.358;-1.486;2022-11-21T02:02:28;3.05;;;0.70;;
54561;SDS011;40456;53.358;-1.486;2022-11-21T02:04:55;2.33;;;0.90;;
54561;SDS011;40456;53.358;-1.486;2022-11-21T02:07:22;2.50;;;0.95;;
54561;SDS011;40456;53.358;-1.486;2022-11-21T02:09:50;1.65;;;0.60;;
54561;SDS011;40456;53.358;-1.486;2022-11-21T02:12:25;2.42;;;0.70;;
54561;SDS011;40456;53.358;-1.486;2022-11-21T02:14:54;1.58;;;0.85;;
54561;SDS011;40456;53.358;-1.486;2022-11-21T02:17:20;3.47;;;1.08;;
54561;SDS011;40456;53.358;-1.486;2022-11-21T02:22:23;1.45;;;0.60;;
54561;SDS011;40456;53.358;-1.486;2022-11-21T02:27:29;3.22;;;0.73;;
54561;SDS011;40456;53.358;-1.486;2022-11-21T02:29:55;1.92;;;0.60;;
54561;SDS011;40456;53.358;-1.486;2022-11-21T02:32:24;1.73;;;0.80;;
54561;SDS011;40456;53.358;-1.486;2022-11-21T02:34:55;4.85;;;1.02;;
54561;SDS011;40456;53.358;-1.486;2022-11-21T02:37:21;1.90;;;0.70;;
54561;SDS011;40456;53.358;-1.486;2022-11-21T02:39:46;2.40;;;0.70;;
54561;SDS011;40456;53.358;-1.486;2022-11-21T02:42:29;1.48;;;0.90;;
54561;SDS011;40456;53.358;-1.486;2022-11-21T02:47:51;4.30;;;0.90;;
54561;SDS011;40456;53.358;-1.486;2022-11-21T02:50:19;1.92;;;0.70;;
54561;SDS011;40456;53.358;-1.486;2022-11-21T02:53:06;1.73;;;0.50;;
54561;SDS011;40456;53.358;-1.486;2022-11-21T02:55:34;1.88;;;0.70;;
54561;SDS011;40456;53.358;-1.486;2022-11-21T02:57:59;1.63;;;0.57;;
54561;SDS011;40456;53.358;-1.486;2022-11-21T03:00:25;2.33;;;0.73;;
54561;SDS011;40456;53.358;-1.486;2022-11-21T03:02:50;1.77;;;0.63;;
54561;SDS011;40456;53.358;-1.486;2022-11-21T03:05:17;1.42;;;0.60;;
54561;SDS011;40456;53.358;-1.486;2022-11-21T03:07:43;2.85;;;0.70;;
54561;SDS011;40456;53.358;-1.486;2022-11-21T03:10:10;4.10;;;1.17;;
54561;SDS011;40456;53.358;-1.486;2022-11-21T03:12:36;2.00;;;0.50;;
54561;SDS011;40456;53.358;-1.486;2022-11-21T03:15:06;2.33;;;0.52;;
54561;SDS011;40456;53.358;-1.486;2022-11-21T03:17:32;2.47;;;0.80;;
54561;SDS011;40456;53.358;-1.486;2022-11-21T03:19:58;1.05;;;0.30;;
54561;SDS011;40456;53.358;-1.486;2022-11-21T03:22:23;0.45;;;0.35;;
54561;SDS011;40456;53.358;-1.486;2022-11-21T03:24:49;5.28;;;0.70;;
54561;SDS011;40456;53.358;-1.486;2022-11-21T03:27:14;1.73;;;0.75;;
54561;SDS011;40456;53.358;-1.486;2022-11-21T03:29:39;1.10;;;0.50;;
54561;SDS011;40456;53.358;-1.486;2022-11-21T03:32:05;1.42;;;0.45;;
54561;SDS011;40456;53.358;-1.486;2022-11-21T03:34:30;2.05;;;0.40;;
54561;SDS011;40456;53.358;-1.486;2022-11-21T03:36:55;0.50;;;0.45;;
54561;SDS011;40456;53.358;-1.486;2022-11-21T03:39:21;1.20;;;0.50;;
54561;SDS011;40456;53.358;-1.486;2022-11-21T03:41:46;4.13;;;0.82;;
54561;SDS011;40456;53.358;-1.486;2022-11-21T03:44:12;3.55;;;0.40;;
54561;SDS011;40456;53.358;-1.486;2022-11-21T03:46:38;2.00;;;0.60;;
54561;SDS011;40456;53.358;-1.486;2022-11-21T03:49:05;2.47;;;0.60;;
54561;SDS011;40456;53.358;-1.486;2022-11-21T03:51:31;2.53;;;0.52;;
54561;SDS011;40456;53.358;-1.486;2022-11-21T03:53:57;2.33;;;0.60;;
54561;SDS011;40456;53.358;-1.486;2022-11-21T03:56:22;2.10;;;0.55;;
54561;SDS011;40456;53.358;-1.486;2022-11-21T03:58:48;4.03;;;1.05;;
54561;SDS011;40456;53.358;-1.486;2022-11-21T04:01:13;2.33;;;0.70;;
54561;SDS011;40456;53.358;-1.486;2022-11-21T04:03:39;1.50;;;0.93;;
54561;SDS011;40456;53.358;-1.486;2022-11-21T04:06:06;2.92;;;1.13;;
54561;SDS011;40456;53.358;-1.486;2022-11-21T04:08:31;1.58;;;0.80;;
54561;SDS011;40456;53.358;-1.486;2022-11-21T04:10:57;0.90;;;0.70;;
54561;SDS011;40456;53.358;-1.486;2022-11-21T04:13:22;2.55;;;0.85;;
54561;SDS011;40456;53.358;-1.486;2022-11-21T04:15:48;1.65;;;0.68;;
54561;SDS011;40456;53.358;-1.486;2022-11-21T04:18:13;2.40;;;0.80;;
54561;SDS011;40456;53.358;-1.486;2022-11-21T04:20:39;2.85;;;0.40;;
54561;SDS011;40456;53.358;-1.486;2022-11-21T04:23:04;1.70;;;0.60;;
54561;SDS011;40456;53.358;-1.486;2022-11-21T04:25:30;1.52;;;0.70;;
54561;SDS011;40456;53.358;-1.486;2022-11-21T04:27:59;1.88;;;0.57;;
54561;SDS011;40456;53.358;-1.486;2022-11-21T04:30:25;1.38;;;0.50;;
54561;SDS011;40456;53.358;-1.486;2022-11-21T04:32:52;1.58;;;0.60;;
54561;SDS011;40456;53.358;-1.486;2022-11-21T04:35:18;1.58;;;0.70;;
54561;SDS011;40456;53.358;-1.486;2022-11-21T04:37:43;3.90;;;0.90;;
54561;SDS011;40456;53.358;-1.486;2022-11-21T04:40:09;1.65;;;0.50;;
54561;SDS011;40456;53.358;-1.486;2022-11-21T04:42:35;1.35;;;0.70;;
54561;SDS011;40456;53.358;-1.486;2022-11-21T04:45:00;1.13;;;0.50;;
54561;SDS011;40456;53.358;-1.486;2022-11-21T04:47:25;1.02;;;0.50;;
54561;SDS011;40456;53.358;-1.486;2022-11-21T04:49:51;1.20;;;0.50;;
54561;SDS011;40456;53.358;-1.486;2022-11-21T04:52:16;1.55;;;0.60;;
54561;SDS011;40456;53.358;-1.486;2022-11-21T04:54:42;1.35;;;0.98;;
54561;SDS011;40456;53.358;-1.486;2022-11-21T04:57:07;2.78;;;1.02;;
54561;SDS011;40456;53.358;-1.486;2022-11-21T04:59:33;1.27;;;0.50;;
54561;SDS011;40456;53.358;-1.486;2022-11-21T05:01:58;3.03;;;0.52;;
54561;SDS011;40456;53.358;-1.486;2022-11-21T05:04:23;1.80;;;0.50;;
54561;SDS011;40456;53.358;-1.486;2022-11-21T05:06:49;1.65;;;0.45;;
54561;SDS011;40456;53.358;-1.486;2022-11-21T05:09:14;0.38;;;0.30;;
54561;SDS011;40456;53.358;-1.486;2022-11-21T05:11:39;1.38;;;0.73;;
54561;SDS011;40456;53.358;-1.486;2022-11-21T05:14:24;1.60;;;0.47;;
54561;SDS011;40456;53.358;-1.486;2022-11-21T05:16:50;3.38;;;0.70;;
54561;SDS011;40456;53.358;-1.486;2022-11-21T05:19:16;1.05;;;0.63;;
54561;SDS011;40456;53.358;-1.486;2022-11-21T05:21:41;1.02;;;0.65;;
54561;SDS011;40456;53.358;-1.486;2022-11-21T05:24:07;3.30;;;0.73;;
54561;SDS011;40456;53.358;-1.486;2022-11-21T05:26:32;1.98;;;0.80;;
54561;SDS011;40456;53.358;-1.486;2022-11-21T05:28:57;1.17;;;0.63;;
54561;SDS011;40456;53.358;-1.486;2022-11-21T05:31:23;1.45;;;0.57;;
54561;SDS011;40456;53.358;-1.486;2022-11-21T05:33:48;1.33;;;0.60;;
54561;SDS011;40456;53.358;-1.486;2022-11-21T05:36:14;3.88;;;0.55;;
54561;SDS011;40456;53.358;-1.486;2022-11-21T05:38:39;0.90;;;0.60;;
54561;SDS011;40456;53.358;-1.486;2022-11-21T05:41:04;0.60;;;0.47;;
54561;SDS011;40456;53.358;-1.486;2022-11-21T05:43:30;1.27;;;0.60;;
54561;SDS011;40456;53.358;-1.486;2022-11-21T05:46:14;0.52;;;0.50;;
54561;SDS011;40456;53.358;-1.486;2022-11-21T05:48:41;0.95;;;0.63;;
54561;SDS011;40456;53.358;-1.486;2022-11-21T05:51:07;0.88;;;0.47;;
54561;SDS011;40456;53.358;-1.486;2022-11-21T05:53:33;2.30;;;0.80;;
54561;SDS011;40456;53.358;-1.486;2022-11-21T05:56:06;1.08;;;0.52;;
54561;SDS011;40456;53.358;-1.486;2022-11-21T05:58:34;0.82;;;0.40;;
54561;SDS011;40456;53.358;-1.486;2022-11-21T06:01:00;0.88;;;0.50;;
54561;SDS011;40456;53.358;-1.486;2022-11-21T06:03:26;2.13;;;1.02;;
54561;SDS011;40456;53.358;-1.486;2022-11-21T06:06:00;1.15;;;0.50;;
54561;SDS011;40456;53.358;-1.486;2022-11-21T06:08:33;2.53;;;0.80;;
54561;SDS011;40456;53.358;-1.486;2022-11-21T06:11:06;1.00;;;0.45;;
54561;SDS011;40456;53.358;-1.486;2022-11-21T06:13:32;2.05;;;0.60;;
54561;SDS011;40456;53.358;-1.486;2022-11-21T06:16:03;0.50;;;0.47;;
54561;SDS011;40456;53.358;-1.486;2022-11-21T06:18:34;1.65;;;0.73;;
54561;SDS011;40456;53.358;-1.486;2022-11-21T06:21:04;0.70;;;0.70;;
54561;SDS011;40456;53.358;-1.486;2022-11-21T06:23:31;1.98;;;0.90;;
54561;SDS011;40456;53.358;-1.486;2022-11-21T06:25:58;1.15;;;0.80;;
54561;SDS011;40456;53.358;-1.486;2022-11-21T06:28:25;1.25;;;0.65;;
54561;SDS011;40456;53.358;-1.486;2022-11-21T06:30:50;1.45;;;0.80;;
54561;SDS011;40456;53.358;-1.486;2022-11-21T06:33:16;0.82;;;0.70;;
54561;SDS011;40456;53.358;-1.486;2022-11-21T06:35:42;2.92;;;0.80;;
54561;SDS011;40456;53.358;-1.486;2022-11-21T06:38:08;1.77;;;0.60;;
54561;SDS011;40456;53.358;-1.486;2022-11-21T06:40:33;3.33;;;0.95;;
54561;SDS011;40456;53.358;-1.486;2022-11-21T06:42:59;3.25;;;0.93;;
54561;SDS011;40456;53.358;-1.486;2022-11-21T06:45:25;2.47;;;0.98;;
54561;SDS011;40456;53.358;-1.486;2022-11-21T06:47:50;2.03;;;0.60;;
54561;SDS011;40456;53.358;-1.486;2022-11-21T06:50:16;0.80;;;0.50;;
54561;SDS011;40456;53.358;-1.486;2022-11-21T06:52:41;2.67;;;0.85;;
54561;SDS011;40456;53.358;-1.486;2022-11-21T06:55:08;1.15;;;0.68;;
54561;SDS011;40456;53.358;-1.486;2022-11-21T06:57:34;4.60;;;1.13;;
54561;SDS011;40456;53.358;-1.486;2022-11-21T06:59:59;3.60;;;0.90;;
54561;SDS011;40456;53.358;-1.486;2022-11-21T07:02:24;1.30;;;0.90;;
54561;SDS011;40456;53.358;-1.486;2022-11-21T07:04:51;2.80;;;0.70;;
54561;SDS011;40456;53.358;-1.486;2022-11-21T07:07:16;1.88;;;0.90;;
54561;SDS011;40456;53.358;-1.486;2022-11-21T07:09:42;4.90;;;1.45;;
54561;SDS011;40456;53.358;-1.486;2022-11-21T07:12:08;2.53;;;0.90;;
54561;SDS011;40456;53.358;-1.486;2022-11-21T07:14:53;3.55;;;1.02;;
54561;SDS011;40456;53.358;-1.486;2022-11-21T07:17:18;1.52;;;0.77;;
54561;SDS011;40456;53.358;-1.486;2022-11-21T07:19:43;2.22;;;1.10;;
54561;SDS011;40456;53.358;-1.486;2022-11-21T07:22:09;1.23;;;0.88;;
54561;SDS011;40456;53.358;-1.486;2022-11-21T07:24:34;2.88;;;1.10;;
54561;SDS011;40456;53.358;-1.486;2022-11-21T07:27:00;1.95;;;0.98;;
54561;SDS011;40456;53.358;-1.486;2022-11-21T07:29:26;1.73;;;1.10;;
54561;SDS011;40456;53.358;-1.486;2022-11-21T07:31:51;1.70;;;1.00;;
54561;SDS011;40456;53.358;-1.486;2022-11-21T07:34:17;1.85;;;0.90;;
54561;SDS011;40456;53.358;-1.486;2022-11-21T07:36:42;1.33;;;1.00;;
54561;SDS011;40456;53.358;-1.486;2022-11-21T07:39:08;1.52;;;0.90;;
54561;SDS011;40456;53.358;-1.486;2022-11-21T07:41:33;2.38;;;1.05;;
54561;SDS011;40456;53.358;-1.486;2022-11-21T07:43:59;1.77;;;1.00;;
54561;SDS011;40456;53.358;-1.486;2022-11-21T07:46:24;5.60;;;1.17;;
54561;SDS011;40456;53.358;-1.486;2022-11-21T07:48:50;3.22;;;1.27;;
54561;SDS011;40456;53.358;-1.486;2022-11-21T07:51:15;4.30;;;1.02;;
54561;SDS011;40456;53.358;-1.486;2022-11-21T07:53:40;2.50;;;1.00;;
54561;SDS011;40456;53.358;-1.486;2022-11-21T07:56:06;4.05;;;1.48;;
54561;SDS011;40456;53.358;-1.486;2022-11-21T07:58:33;2.75;;;1.30;;
54561;SDS011;40456;53.358;-1.486;2022-11-21T08:01:02;2.28;;;1.30;;
54561;SDS011;40456;53.358;-1.486;2022-11-21T08:03:29;2.50;;;1.30;;
54561;SDS011;40456;53.358;-1.486;2022-11-21T08:05:55;2.03;;;1.17;;
54561;SDS011;40456;53.358;-1.486;2022-11-21T08:08:20;2.42;;;1.30;;
54561;SDS011;40456;53.358;-1.486;2022-11-21T08:10:45;4.35;;;1.48;;
54561;SDS011;40456;53.358;-1.486;2022-11-21T08:13:12;4.53;;;1.35;;
54561;SDS011;40456;53.358;-1.486;2022-11-21T08:15:37;3.83;;;1.77;;
54561;SDS011;40456;53.358;-1.486;2022-11-21T08:18:13;3.30;;;1.30;;
54561;SDS011;40456;53.358;-1.486;2022-11-21T08:20:40;5.65;;;2.25;;
54561;SDS011;40456;53.358;-1.486;2022-11-21T08:23:06;3.20;;;1.75;;
54561;SDS011;40456;53.358;-1.486;2022-11-21T08:25:35;3.40;;;1.77;;
54561;SDS011;40456;53.358;-1.486;2022-11-21T08:28:01;4.45;;;2.30;;
54561;SDS011;40456;53.358;-1.486;2022-11-21T08:30:27;4.13;;;2.17;;
54561;SDS011;40456;53.358;-1.486;2022-11-21T08:32:53;4.32;;;1.85;;
54561;SDS011;40456;53.358;-1.486;2022-11-21T08:35:18;5.32;;;2.22;;
54561;SDS011;40456;53.358;-1.486;2022-11-21T08:37:44;4.88;;;2.20;;
54561;SDS011;40456;53.358;-1.486;2022-11-21T08:40:09;3.47;;;2.17;;
54561;SDS011;40456;53.358;-1.486;2022-11-21T08:42:35;2.65;;;1.80;;
54561;SDS011;40456;53.358;-1.486;2022-11-21T08:45:02;5.20;;;2.20;;
54561;SDS011;40456;53.358;-1.486;2022-11-21T08:47:28;4.05;;;1.85;;
54561;SDS011;40456;53.358;-1.486;2022-11-21T08:49:57;3.67;;;2.28;;
54561;SDS011;40456;53.358;-1.486;2022-11-21T08:52:22;3.55;;;1.70;;
54561;SDS011;40456;53.358;-1.486;2022-11-21T08:54:48;5.03;;;1.55;;
54561;SDS011;40456;53.358;-1.486;2022-11-21T08:57:13;2.72;;;1.52;;
54561;SDS011;40456;53.358;-1.486;2022-11-21T08:59:38;3.38;;;1.90;;
54561;SDS011;40456;53.358;-1.486;2022-11-21T09:02:04;3.67;;;1.90;;
54561;SDS011;40456;53.358;-1.486;2022-11-21T09:04:29;2.70;;;1.80;;
54561;SDS011;40456;53.358;-1.486;2022-11-21T09:06:55;2.45;;;1.80;;
54561;SDS011;40456;53.358;-1.486;2022-11-21T09:09:20;2.88;;;1.90;;
54561;SDS011;40456;53.358;-1.486;2022-11-21T09:11:45;2.90;;;1.95;;
54561;SDS011;40456;53.358;-1.486;2022-11-21T09:14:11;4.22;;;2.30;;
54561;SDS011;40456;53.358;-1.486;2022-11-21T09:16:55;3.08;;;1.77;;
54561;SDS011;40456;53.358;-1.486;2022-11-21T09:19:39;2.42;;;1.35;;
54561;SDS011;40456;53.358;-1.486;2022-11-21T09:22:05;3.15;;;1.80;;
54561;SDS011;40456;53.358;-1.486;2022-11-21T09:24:30;3.80;;;2.10;;
54561;SDS011;40456;53.358;-1.486;2022-11-21T09:26:56;6.30;;;1.90;;
54561;SDS011;40456;53.358;-1.486;2022-11-21T09:29:21;6.93;;;2.22;;
54561;SDS011;40456;53.358;-1.486;2022-11-21T09:31:46;4.03;;;1.98;;
54561;SDS011;40456;53.358;-1.486;2022-11-21T09:34:12;5.10;;;2.00;;
54561;SDS011;40456;53.358;-1.486;2022-11-21T09:36:37;2.92;;;1.65;;
54561;SDS011;40456;53.358;-1.486;2022-11-21T09:39:03;3.58;;;1.90;;
54561;SDS011;40456;53.358;-1.486;2022-11-21T09:44:55;4.00;;;1.70;;
54561;SDS011;40456;53.358;-1.486;2022-11-21T09:47:46;7.68;;;1.80;;
54561;SDS011;40456;53.358;-1.486;2022-11-21T09:52:40;4.25;;;1.58;;
54561;SDS011;40456;53.358;-1.486;2022-11-21T09:55:20;5.25;;;1.80;;
54561;SDS011;40456;53.358;-1.486;2022-11-21T09:57:50;2.58;;;1.40;;
54561;SDS011;40456;53.358;-1.486;2022-11-21T10:00:20;3.45;;;1.40;;
54561;SDS011;40456;53.358;-1.486;2022-11-21T10:02:47;2.53;;;1.52;;
54561;SDS011;40456;53.358;-1.486;2022-11-21T10:05:13;1.60;;;1.20;;
54561;SDS011;40456;53.358;-1.486;2022-11-21T10:07:39;2.92;;;1.35;;
54561;SDS011;40456;53.358;-1.486;2022-11-21T10:10:15;3.83;;;1.40;;
54561;SDS011;40456;53.358;-1.486;2022-11-21T10:23:57;5.28;;;1.67;;
54561;SDS011;40456;53.358;-1.486;2022-11-21T10:26:57;3.15;;;1.85;;
54561;SDS011;40456;53.358;-1.486;2022-11-21T10:31:53;3.35;;;1.52;;
54561;SDS011;40456;53.358;-1.486;2022-11-21T10:34:21;3.67;;;1.83;;
54561;SDS011;40456;53.358;-1.486;2022-11-21T10:36:51;3.47;;;1.75;;
54561;SDS011;40456;53.358;-1.486;2022-11-21T10:39:25;4.30;;;1.85;;
54561;SDS011;40456;53.358;-1.486;2022-11-21T10:42:01;4.97;;;1.63;;
54561;SDS011;40456;53.358;-1.486;2022-11-21T10:44:48;4.07;;;1.70;;
54561;SDS011;40456;53.358;-1.486;2022-11-21T10:47:33;2.03;;;1.33;;
54561;SDS011;40456;53.358;-1.486;2022-11-21T10:50:11;4.65;;;1.80;;
54561;SDS011;40456;53.358;-1.486;2022-11-21T10:56:08;5.05;;;2.20;;
54561;SDS011;40456;53.358;-1.486;2022-11-21T11:01:20;4.57;;;2.40;;
54561;SDS011;40456;53.358;-1.486;2022-11-21T11:03:57;5.32;;;2.53;;
54561;SDS011;40456;53.358;-1.486;2022-11-21T11:06:31;4.70;;;2.17;;
54561;SDS011;40456;53.358;-1.486;2022-11-21T11:08:56;4.28;;;2.10;;
54561;SDS011;40456;53.358;-1.486;2022-11-21T11:11:22;5.93;;;2.28;;
54561;SDS011;40456;53.358;-1.486;2022-11-21T11:16:21;3.50;;;2.30;;
54561;SDS011;40456;53.358;-1.486;2022-11-21T11:21:24;4.97;;;1.88;;
54561;SDS011;40456;53.358;-1.486;2022-11-21T11:23:52;3.65;;;2.10;;
54561;SDS011;40456;53.358;-1.486;2022-11-21T11:26:22;5.82;;;1.95;;
54561;SDS011;40456;53.358;-1.486;2022-11-21T11:28:49;3.05;;;1.83;;
54561;SDS011;40456;53.358;-1.486;2022-11-21T11:31:16;3.63;;;1.95;;
54561;SDS011;40456;53.358;-1.486;2022-11-21T11:36:13;5.03;;;2.08;;
54561;SDS011;40456;53.358;-1.486;2022-11-21T11:38:54;4.32;;;1.98;;
54561;SDS011;40456;53.358;-1.486;2022-11-21T11:44:32;3.10;;;1.67;;
54561;SDS011;40456;53.358;-1.486;2022-11-21T11:47:26;2.80;;;2.15;;
54561;SDS011;40456;53.358;-1.486;2022-11-21T11:50:08;3.30;;;2.20;;
54561;SDS011;40456;53.358;-1.486;2022-11-21T11:52:59;3.67;;;1.90;;
54561;SDS011;40456;53.358;-1.486;2022-11-21T12:00:58;3.33;;;2.00;;
54561;SDS011;40456;53.358;-1.486;2022-11-21T12:03:35;4.95;;;2.38;;
54561;SDS011;40456;53.358;-1.486;2022-11-21T12:06:08;2.85;;;1.85;;
54561;SDS011;40456;53.358;-1.486;2022-11-21T12:13:55;3.35;;;1.83;;
54561;SDS011;40456;53.358;-1.486;2022-11-21T12:16:21;3.15;;;1.75;;
54561;SDS011;40456;53.358;-1.486;2022-11-21T12:21:17;4.63;;;1.80;;
54561;SDS011;40456;53.358;-1.486;2022-11-21T12:40:18;1.55;;;1.13;;
54561;SDS011;40456;53.358;-1.486;2022-11-21T12:43:06;4.20;;;1.77;;
54561;SDS011;40456;53.358;-1.486;2022-11-21T12:45:37;2.35;;;1.25;;
54561;SDS011;40456;53.358;-1.486;2022-11-21T12:59:13;3.92;;;1.90;;
54561;SDS011;40456;53.358;-1.486;2022-11-21T13:01:47;3.83;;;1.50;;
54561;SDS011;40456;53.358;-1.486;2022-11-21T13:04:35;3.42;;;1.40;;
54561;SDS011;40456;53.358;-1.486;2022-11-21T13:07:02;2.33;;;1.25;;
54561;SDS011;40456;53.358;-1.486;2022-11-21T13:09:28;4.40;;;1.27;;
54561;SDS011;40456;53.358;-1.486;2022-11-21T13:12:05;2.42;;;1.48;;
54561;SDS011;40456;53.358;-1.486;2022-11-21T13:19:59;2.83;;;1.27;;
54561;SDS011;40456;53.358;-1.486;2022-11-21T13:24:59;2.58;;;1.20;;
54561;SDS011;40456;53.358;-1.486;2022-11-21T13:27:44;3.95;;;2.20;;
54561;SDS011;40456;53.358;-1.486;2022-11-21T13:32:39;4.38;;;1.65;;
54561;SDS011;40456;53.358;-1.486;2022-11-21T13:38:02;2.58;;;1.77;;
54561;SDS011;40456;53.358;-1.486;2022-11-21T13:40:37;3.10;;;1.60;;
54561;SDS011;40456;53.358;-1.486;2022-11-21T13:45:45;2.53;;;1.48;;
54561;SDS011;40456;53.358;-1.486;2022-11-21T13:51:00;3.42;;;1.55;;
54561;SDS011;40456;53.358;-1.486;2022-11-21T13:59:09;3.53;;;1.40;;
54561;SDS011;40456;53.358;-1.486;2022-11-21T14:09:55;5.30;;;1.60;;
54561;SDS011;40456;53.358;-1.486;2022-11-21T14:12:23;5.53;;;1.50;;
54561;SDS011;40456;53.358;-1.486;2022-11-21T14:14:52;2.78;;;1.45;;
54561;SDS011;40456;53.358;-1.486;2022-11-21T14:19:57;6.85;;;1.73;;
54561;SDS011;40456;53.358;-1.486;2022-11-21T14:24:55;4.90;;;1.63;;
54561;SDS011;40456;53.358;-1.486;2022-11-21T14:27:26;3.63;;;1.60;;
54561;SDS011;40456;53.358;-1.486;2022-11-21T14:29:53;2.95;;;1.60;;
54561;SDS011;40456;53.358;-1.486;2022-11-21T14:32:24;4.05;;;1.80;;
54561;SDS011;40456;53.358;-1.486;2022-11-21T14:34:52;5.97;;;1.92;;
54561;SDS011;40456;53.358;-1.486;2022-11-21T14:37:17;3.95;;;1.52;;
54561;SDS011;40456;53.358;-1.486;2022-11-21T14:39:43;5.65;;;2.00;;
54561;SDS011;40456;53.358;-1.486;2022-11-21T14:42:14;2.92;;;1.42;;
54561;SDS011;40456;53.358;-1.486;2022-11-21T14:44:39;4.07;;;1.90;;
54561;SDS011;40456;53.358;-1.486;2022-11-21T14:47:15;5.75;;;1.50;;
54561;SDS011;40456;53.358;-1.486;2022-11-21T14:49:49;4.80;;;2.03;;
54561;SDS011;40456;53.358;-1.486;2022-11-21T14:54:45;2.05;;;1.35;;
54561;SDS011;40456;53.358;-1.486;2022-11-21T14:57:17;2.63;;;1.73;;
54561;SDS011;40456;53.358;-1.486;2022-11-21T14:59:45;2.92;;;1.48;;
54561;SDS011;40456;53.358;-1.486;2022-11-21T15:04:43;2.92;;;1.50;;
54561;SDS011;40456;53.358;-1.486;2022-11-21T15:07:21;3.92;;;1.50;;
54561;SDS011;40456;53.358;-1.486;2022-11-21T15:09:48;5.93;;;2.00;;
54561;SDS011;40456;53.358;-1.486;2022-11-21T15:12:18;3.00;;;1.52;;
54561;SDS011;40456;53.358;-1.486;2022-11-21T15:14:59;4.05;;;1.60;;
54561;SDS011;40456;53.358;-1.486;2022-11-21T15:17:26;2.90;;;1.55;;
54561;SDS011;40456;53.358;-1.486;2022-11-21T15:20:04;2.17;;;1.20;;
54561;SDS011;40456;53.358;-1.486;2022-11-21T15:25:13;4.20;;;1.88;;
54561;SDS011;40456;53.358;-1.486;2022-11-21T15:27:42;3.53;;;1.42;;
54561;SDS011;40456;53.358;-1.486;2022-11-21T15:33:01;3.22;;;1.15;;
54561;SDS011;40456;53.358;-1.486;2022-11-21T15:43:43;3.92;;;1.45;;
54561;SDS011;40456;53.358;-1.486;2022-11-21T15:48:51;1.83;;;1.30;;
54561;SDS011;40456;53.358;-1.486;2022-11-21T15:51:24;2.30;;;1.20;;
54561;SDS011;40456;53.358;-1.486;2022-11-21T15:53:50;2.47;;;1.20;;
54561;SDS011;40456;53.358;-1.486;2022-11-21T15:56:17;1.75;;;1.00;;
54561;SDS011;40456;53.358;-1.486;2022-11-21T15:58:43;2.50;;;1.50;;
54561;SDS011;40456;53.358;-1.486;2022-11-21T16:01:11;2.08;;;1.23;;
54561;SDS011;40456;53.358;-1.486;2022-11-21T16:03:38;3.00;;;1.20;;
54561;SDS011;40456;53.358;-1.486;2022-11-21T16:06:03;4.03;;;1.58;;
54561;SDS011;40456;53.358;-1.486;2022-11-21T16:08:29;2.80;;;1.30;;
54561;SDS011;40456;53.358;-1.486;2022-11-21T16:10:54;4.75;;;2.40;;
54561;SDS011;40456;53.358;-1.486;2022-11-21T16:13:20;1.85;;;1.00;;
54561;SDS011;40456;53.358;-1.486;2022-11-21T16:15:45;2.05;;;1.30;;
54561;SDS011;40456;53.358;-1.486;2022-11-21T16:18:11;3.60;;;1.52;;
54561;SDS011;40456;53.358;-1.486;2022-11-21T16:20:36;2.50;;;1.35;;
54561;SDS011;40456;53.358;-1.486;2022-11-21T16:23:02;2.80;;;1.23;;
54561;SDS011;40456;53.358;-1.486;2022-11-21T16:25:28;5.00;;;1.23;;
54561;SDS011;40456;53.358;-1.486;2022-11-21T16:27:53;3.65;;;1.08;;
54561;SDS011;40456;53.358;-1.486;2022-11-21T16:30:20;2.72;;;1.17;;
54561;SDS011;40456;53.358;-1.486;2022-11-21T16:32:46;4.00;;;1.25;;
54561;SDS011;40456;53.358;-1.486;2022-11-21T16:35:11;5.05;;;1.48;;
54561;SDS011;40456;53.358;-1.486;2022-11-21T16:37:37;3.30;;;1.20;;
54561;SDS011;40456;53.358;-1.486;2022-11-21T16:40:02;3.05;;;1.38;;
54561;SDS011;40456;53.358;-1.486;2022-11-21T16:42:28;4.00;;;1.30;;
54561;SDS011;40456;53.358;-1.486;2022-11-21T16:44:54;3.50;;;1.50;;
54561;SDS011;40456;53.358;-1.486;2022-11-21T16:47:19;1.83;;;1.05;;
54561;SDS011;40456;53.358;-1.486;2022-11-21T16:49:45;3.92;;;1.08;;
54561;SDS011;40456;53.358;-1.486;2022-11-21T16:52:12;3.42;;;1.05;;
54561;SDS011;40456;53.358;-1.486;2022-11-21T16:54:38;1.83;;;0.65;;
54561;SDS011;40456;53.358;-1.486;2022-11-21T16:57:03;2.95;;;1.38;;
54561;SDS011;40456;53.358;-1.486;2022-11-21T16:59:30;2.08;;;1.15;;
54561;SDS011;40456;53.358;-1.486;2022-11-21T17:01:56;2.50;;;1.50;;
54561;SDS011;40456;53.358;-1.486;2022-11-21T17:04:21;1.80;;;1.08;;
54561;SDS011;40456;53.358;-1.486;2022-11-21T17:06:47;1.98;;;0.85;;